Sunday, December 16, 2018, 3:45 PM GMT
Back to Local

CWSS, St. Stephen, N. B.

Location: , , Canada Lat: 45.217
Local Time: 3:45 PM GMT (15:45 GMT) Lon: -67.25
Time Zone: GMT Elev: 85 ft

Show me the last for .
Show Decoded

2018-12-16 15:00 METAR CWSS 161500Z AUTO 25001KT 01/M02 RMK AO1 SOG 03 3007 SLP249 T00081022 =
2018-12-16 14:00 METAR CWSS 161400Z AUTO 13003KT M02/M03 RMK AO1 SOG 03 3003 SLP246 T10161033 =
2018-12-16 13:00 METAR CWSS 161300Z AUTO 32001KT M06/M06 RMK AO1 SOG 04 0000 SLP242 T10581064 =
2018-12-16 12:00 METAR CWSS 161200Z AUTO 28001KT M08/M09 RMK AO1 SOG 04 6006 SLP243 T10821093 =
2018-12-16 11:00 METAR CWSS 161100Z AUTO 00000KT M08/M09 RMK AO1 SOG 04 5004 SLP244 T10791089 =
2018-12-16 10:00 METAR CWSS 161000Z AUTO 32001KT M08/M09 RMK AO1 SOG 04 8006 SLP242 T10771087 =
2018-12-16 09:00 METAR CWSS 160900Z AUTO 26001KT M07/M08 RMK AO1 SOG 04 1008 SLP248 T10711080 =
2018-12-16 08:00 METAR CWSS 160800Z AUTO 00000KT M07/M08 RMK AO1 SOG 04 3005 SLP247 T10721079 =
2018-12-16 07:00 METAR CWSS 160700Z AUTO 32001KT M07/M08 RMK AO1 SOG 04 3008 SLP248 T10671076 =
2018-12-16 06:00 METAR CWSS 160600Z AUTO 25001KT M06/M07 RMK AO1 SOG 04 0001 SLP240 T10621071 =
2018-12-16 05:00 METAR CWSS 160500Z AUTO 26003KT M05/M06 RMK AO1 SOG 03 1009 SLP242 T10491057 =
2018-12-16 04:00 METAR CWSS 160400Z AUTO 30002KT M04/M05 RMK AO1 SOG 04 3007 SLP240 T10421048 =
2018-12-16 03:00 METAR CWSS 160300Z AUTO 24002KT M03/M04 RMK AO1 SOG 04 3011 SLP239 T10341041 =
2018-12-16 02:00 METAR CWSS 160200Z AUTO 29002KT M03/M04 RMK AO1 SOG 04 1009 SLP233 T10321036 =
2018-12-16 01:00 METAR CWSS 160100Z AUTO 32002KT M03/M04 RMK AO1 SOG 04 1015 SLP233 T10291036 =
2018-12-16 00:00 METAR CWSS 160000Z AUTO 36001KT M03/M04 RMK AO1 SOG 04 1015 SLP228 T10341042 =
2018-12-15 23:00 METAR CWSS 152300Z AUTO 36001KT M03/M04 RMK AO1 SOG 04 1022 SLP224 T10281038 =
2018-12-15 22:00 METAR CWSS 152200Z AUTO 31001KT M01/M03 RMK AO1 SOG 03 1028 SLP218 T10101033 =
2018-12-15 21:00 METAR CWSS 152100Z AUTO 30003KT 03/M02 RMK AO1 SOG 03 3030 SLP213 T00331023 =
2018-12-15 20:00 METAR CWSS 152000Z AUTO 29007KT 06/M03 RMK AO1 SOG 04 3021 PK WND 28017/1916
                 SLP202 T00581027 =
2018-12-15 19:00 METAR CWSS 151900Z AUTO 29011G22KT 06/M03 RMK AO1 SOG 04 3008 PK WND 28022/1851
                 SLP190 T00641026 =
2018-12-15 18:00 METAR CWSS 151800Z AUTO 29010G18KT 07/M03 RMK AO1 SOG 04 2003 PK WND 31021/1732
                 SLP183 T00691034 =
2018-12-15 17:00 METAR CWSS 151700Z AUTO 29010G17KT 06/M02 RMK AO1 SOG 04 0003 PK WND 30017/1656
                 SLP181 T00601016 =
2018-12-15 16:00 METAR CWSS 151600Z AUTO 29010G18KT 05/M00 RMK AO1 SOG 04 2006 PK WND 30021/1545
                 SLP182 T00521002 =

Support USWX by starting your Amazon purchase here.